Flight Track Log - Related Links

Times and Time Zones

All times are in EDT time to prevent confusion due to time zone crossing. See the SWA2322 flight status page for this flight to view local times or setup timezone preferences in your user account.

Time Position Orientation Groundspeed Altitude Reporting Facility
EDT Latitude Longitude Course Direction KTS MPH feet Rate Location/Type
Sun 07:54:19 AM 32.9708 -80.0156 North 219 252 3,400  Level Jacksonville Center
Sun 07:55:19 AM 33.0353 -79.9986 12° North 238 274 5,700 3,000 Climbing Jacksonville Center
Sun 07:56:19 AM 33.1142 -79.9761 13° North 258 297 9,400 3,850 Climbing Jacksonville Center
Sun 07:57:19 AM 33.2069 -79.9333 21° North 305 351 13,400 3,350 Climbing Jacksonville Center
Sun 07:58:19 AM 33.2908 -79.8658 34° Northeast 322 371 16,100 2,800 Climbing Jacksonville Center
Sun 07:59:00 AM 33.4399 -79.8687 North  Level FlightAware Approximate
Sun 07:59:19 AM 33.3831 -79.7956 32° Northeast 364 419 19,000  Level Jacksonville Center
Sun 08:00:19 AM 33.4814 -79.7175 34° Northeast 393 452 21,900 2,750 Climbing Jacksonville Center
Sun 08:01:19 AM 33.5794 -79.6392 34° Northeast 413 475 24,500 2,150 Climbing Jacksonville Center
Sun 08:02:19 AM 33.6839 -79.5556 34° Northeast 424 488 26,200 1,600 Climbing Jacksonville Center
Sun 08:03:19 AM 33.7961 -79.4664 33° Northeast 454 522 27,700 1,650 Climbing Jacksonville Center
Sun 08:04:19 AM 33.8983 -79.3872 33° Northeast 468 539 29,500 2,100 Climbing Jacksonville Center
Sun 08:05:19 AM 34.0147 -79.2950 33° Northeast 480 552 31,900 1,866 Climbing Jacksonville Center
Sun 08:07:48 AM 34.3008 -79.0611 34° Northeast 520 598 36,000 1,378 Climbing Washington Center
Sun 08:08:48 AM 34.4269 -78.9608 33° Northeast 508 585 36,700 500 Climbing Washington Center
Sun 08:09:48 AM 34.5294 -78.8742 35° Northeast 497 572 37,000 150 Climbing Washington Center
Sun 08:10:48 AM 34.6447 -78.7803 34° Northeast 497 572 37,000  Level Washington Center
Sun 08:11:48 AM 34.7619 -78.6864 33° Northeast 497 572 37,000  Level Washington Center
Sun 08:12:48 AM 34.8706 -78.5969 34° Northeast 491 565 37,000  Level Washington Center
Sun 08:13:49 AM 34.9836 -78.5022 34° Northeast 491 565 37,000  Level Washington Center
Sun 08:14:48 AM 35.0964 -78.4097 34° Northeast 491 565 37,000  Level Washington Center
Sun 08:15:48 AM 35.2069 -78.3144 35° Northeast 491 565 37,000  Level Washington Center
Sun 08:16:48 AM 35.3275 -78.2525 23° Northeast 481 554 37,000  Level Washington Center
Sun 08:17:48 AM 35.4494 -78.2056 17° North 456 525 37,000  Level Washington Center
Sun 08:18:48 AM 35.5714 -78.1636 16° North 456 525 37,000  Level Washington Center
Sun 08:19:48 AM 35.6933 -78.1136 18° North 456 525 37,000  Level Washington Center
Sun 08:20:48 AM 35.8261 -78.0564 19° North 456 525 37,000  Level Washington Center
Sun 08:21:48 AM 35.9461 -78.0064 19° North 456 525 37,000 -1,250 Level Washington Center
Sun 08:22:48 AM 36.0703 -77.9536 19° North 456 525 34,500 -2,750 Descending Washington Center
Sun 08:23:48 AM 36.1944 -77.8981 20° North 456 525 31,500 -2,600 Descending Washington Center
Sun 08:24:48 AM 36.3142 -77.8475 19° North 461 531 29,300 -1,250 Descending Washington Center
Sun 08:25:48 AM 36.4047 -77.8061 20° North 450 518 29,000 -150 Descending Washington Center
Sun 08:26:48 AM 36.5281 -77.7889 North 380 437 29,000  Level Washington Center
Sun 08:27:48 AM 36.6236 -77.8175 346° North 355 409 29,000  Level Washington Center
Sun 08:28:48 AM 36.7192 -77.8461 347° North 350 403 29,000 -200 Level Washington Center
Sun 08:29:48 AM 36.8167 -77.8647 351° North 355 409 28,600 -500 Descending Washington Center
Sun 08:30:48 AM 36.9181 -77.8053 25° Northeast 355 409 28,000 -700 Descending Washington Center
Sun 08:31:48 AM 37.0156 -77.7247 33° Northeast 395 455 27,200 -500 Descending Washington Center
Sun 08:32:48 AM 37.1192 -77.6392 33° Northeast 409 471 27,000 -100 Descending Washington Center
Sun 08:33:48 AM 37.2228 -77.5533 33° Northeast 431 496 27,000 -50 Level Washington Center
Sun 08:34:48 AM 37.3264 -77.4669 34° Northeast 442 509 26,900 -1,150 Descending Washington Center
Sun 08:35:48 AM 37.4278 -77.3833 33° Northeast 442 509 24,700 -1,950 Descending Washington Center
Sun 08:36:48 AM 37.5311 -77.3122 29° Northeast 442 509 23,000 -850 Descending Washington Center
Sun 08:37:48 AM 37.6378 -77.2939 North 401 461 23,000  Level Washington Center
Sun 08:38:48 AM 37.7444 -77.2700 10° North 388 447 23,000  Level Washington Center
Sun 08:39:48 AM 37.8553 -77.2486 North 388 447 23,000  Level Washington Center
Sun 08:40:48 AM 37.9619 -77.2275 North 388 447 23,000 -750 Level Washington Center
Sun 08:41:48 AM 38.0686 -77.2033 10° North 388 447 21,500 -1,850 Descending Washington Center
Sun 08:42:48 AM 38.1689 -77.1817 10° North 373 429 19,300 -1,950 Descending Washington Center
Sun 08:43:48 AM 38.2672 -77.1625 North 368 423 17,600 -1,950 Descending Washington Center
Sun 08:44:48 AM 38.3633 -77.1408 10° North 363 418 15,400 -1,800 Descending Washington Center
Sun 08:45:48 AM 38.4436 -77.0628 37° Northeast 345 397 14,000 -1,650 Descending Washington Center
Sun 08:46:48 AM 38.5114 -76.9767 45° Northeast 339 390 12,100 -1,450 Descending Washington Center
Sun 08:47:48 AM 38.5831 -76.8956 41° Northeast 339 390 11,100 -950 Descending Washington Center
Sun 08:48:48 AM 38.6444 -76.8144 46° Northeast 329 379 10,200 -1,000 Descending Washington Center
Sun 08:49:48 AM 38.7036 -76.7408 44° Northeast 304 350 9,100 -1,150 Descending Washington Center
Sun 08:50:48 AM 38.7461 -76.6564 57° Northeast 292 336 7,900 -1,304 Descending Washington Center
Sun 08:51:20 AM 38.7667 -76.6000 65° Northeast 292 336 7,100 -1,304 Descending Potomac TRACON
Sun 08:52:20 AM 38.8167 -76.5333 46° Northeast 277 319 5,900 -1,053 Descending Potomac TRACON
Sun 08:53:14 AM 38.8833 -76.5333 360° North 257 296 5,100 -947 Descending Potomac TRACON
Sun 08:54:14 AM 38.9500 -76.5500 349° North 255 293 4,100 -1,000 Descending Potomac TRACON
Sun 08:55:08 AM 39.0167 -76.5667 349° North 238 274 3,200 -730 Descending Potomac TRACON
Sun 08:56:09 AM 39.0667 -76.6000 333° Northwest 196 226 2,700 -810 Descending Potomac TRACON
Sun 08:57:14 AM 39.1167 -76.6167 346° North 147 169 1,500 -912 Descending Potomac TRACON
Sun 08:58:14 AM 39.1333 -76.6333 322° Northwest 126 145 800 -700 Descending Potomac TRACON
Sun 09:00:00 AM 39.1667 -76.6667 339° North  Level FlightAware Approximate
Sun 09:07:00 AM 39.1754 -76.6683 339° North  Level Estimated
Sun 09:08:00 AM 39.1754 -76.6683 339° North  Level Estimated
Sun 09:09:00 AM 39.1754 -76.6683 339° North  Level Estimated

Login

Don't have an account? Register now (free) for customized features, flight alerts, and more!